Terminal Aerodrome Forecast
Issued by NWS

Home | Current Version | Previous Version | Graphics & Text | Print | Product List | Glossary On
Versions: 1 2 3 4 5 6 7 8 9 10 11 12 13 14 15 16 17 18 19 20
000
FTUS43 KMPX 240900 AAA
TAFRNH
TAF AMD
KRNH 240949Z 2410/2506 31015G25KT 5SM -SN OVC007
     FM241400 31017G28KT 4SM -SN BR OVC012
      TEMPO 2415/2419 2SM -SN OVC007
     FM242200 31014G22KT P6SM -SHSN OVC015
     FM250300 31015G22KT P6SM OVC025=

USA.gov is the U.S. government's official web portal to all federal, state and local government web resources and services.